sensor_id;sensor_type;location;lat;lon;timestamp;P1;durP1;ratioP1;P2;durP2;ratioP2
12832;SDS011;6483;51.310;4.462;2023-04-24T00:01:01;12.23;;;7.17;;
12832;SDS011;6483;51.310;4.462;2023-04-24T00:03:28;8.70;;;3.33;;
12832;SDS011;6483;51.310;4.462;2023-04-24T00:05:54;17.67;;;3.97;;
12832;SDS011;6483;51.310;4.462;2023-04-24T00:08:20;23.37;;;11.03;;
12832;SDS011;6483;51.310;4.462;2023-04-24T00:10:46;8.87;;;4.93;;
12832;SDS011;6483;51.310;4.462;2023-04-24T00:13:11;6.10;;;4.07;;
12832;SDS011;6483;51.310;4.462;2023-04-24T00:15:37;4.70;;;4.07;;
12832;SDS011;6483;51.310;4.462;2023-04-24T00:18:03;27.33;;;11.93;;
12832;SDS011;6483;51.310;4.462;2023-04-24T00:20:31;3.07;;;1.53;;
12832;SDS011;6483;51.310;4.462;2023-04-24T00:23:03;4.43;;;4.03;;
12832;SDS011;6483;51.310;4.462;2023-04-24T00:25:31;17.57;;;4.73;;
12832;SDS011;6483;51.310;4.462;2023-04-24T00:27:57;14.17;;;5.33;;
12832;SDS011;6483;51.310;4.462;2023-04-24T00:30:26;4.27;;;2.90;;
12832;SDS011;6483;51.310;4.462;2023-04-24T00:32:52;9.83;;;6.20;;
12832;SDS011;6483;51.310;4.462;2023-04-24T00:35:19;8.03;;;4.27;;
12832;SDS011;6483;51.310;4.462;2023-04-24T00:37:45;1.63;;;1.53;;
12832;SDS011;6483;51.310;4.462;2023-04-24T00:40:11;1.73;;;1.67;;
12832;SDS011;6483;51.310;4.462;2023-04-24T00:42:37;2.47;;;2.27;;
12832;SDS011;6483;51.310;4.462;2023-04-24T00:45:04;1.17;;;1.07;;
12832;SDS011;6483;51.310;4.462;2023-04-24T00:47:30;3.13;;;2.63;;
12832;SDS011;6483;51.310;4.462;2023-04-24T00:49:57;13.90;;;5.03;;
12832;SDS011;6483;51.310;4.462;2023-04-24T00:52:23;6.67;;;3.83;;
12832;SDS011;6483;51.310;4.462;2023-04-24T00:54:49;1.00;;;0.53;;
12832;SDS011;6483;51.310;4.462;2023-04-24T00:57:18;13.27;;;5.77;;
12832;SDS011;6483;51.310;4.462;2023-04-24T00:59:47;27.53;;;6.07;;
12832;SDS011;6483;51.310;4.462;2023-04-24T01:02:14;9.73;;;6.53;;
12832;SDS011;6483;51.310;4.462;2023-04-24T01:04:43;7.70;;;4.23;;
12832;SDS011;6483;51.310;4.462;2023-04-24T01:07:18;10.13;;;5.87;;
12832;SDS011;6483;51.310;4.462;2023-04-24T01:09:49;1.53;;;1.17;;
12832;SDS011;6483;51.310;4.462;2023-04-24T01:12:17;2.70;;;2.47;;
12832;SDS011;6483;51.310;4.462;2023-04-24T01:14:46;2.67;;;2.40;;
12832;SDS011;6483;51.310;4.462;2023-04-24T01:17:18;4.37;;;2.53;;
12832;SDS011;6483;51.310;4.462;2023-04-24T01:19:44;1.97;;;1.87;;
12832;SDS011;6483;51.310;4.462;2023-04-24T01:22:13;3.40;;;2.43;;
12832;SDS011;6483;51.310;4.462;2023-04-24T01:24:43;0.90;;;0.87;;
12832;SDS011;6483;51.310;4.462;2023-04-24T01:27:09;1.23;;;1.23;;
12832;SDS011;6483;51.310;4.462;2023-04-24T01:29:36;1.23;;;1.13;;
12832;SDS011;6483;51.310;4.462;2023-04-24T01:32:02;4.73;;;3.00;;
12832;SDS011;6483;51.310;4.462;2023-04-24T01:34:29;3.83;;;2.63;;
12832;SDS011;6483;51.310;4.462;2023-04-24T01:36:56;4.57;;;2.77;;
12832;SDS011;6483;51.310;4.462;2023-04-24T01:39:21;2.47;;;1.77;;
12832;SDS011;6483;51.310;4.462;2023-04-24T01:41:51;3.23;;;2.30;;
12832;SDS011;6483;51.310;4.462;2023-04-24T01:44:20;2.20;;;2.07;;
12832;SDS011;6483;51.310;4.462;2023-04-24T01:46:49;4.37;;;2.67;;
12832;SDS011;6483;51.310;4.462;2023-04-24T01:49:15;3.83;;;2.73;;
12832;SDS011;6483;51.310;4.462;2023-04-24T01:51:41;4.47;;;3.60;;
12832;SDS011;6483;51.310;4.462;2023-04-24T01:54:10;2.47;;;2.27;;
12832;SDS011;6483;51.310;4.462;2023-04-24T01:56:36;3.33;;;2.70;;
12832;SDS011;6483;51.310;4.462;2023-04-24T01:59:07;1.33;;;0.83;;
12832;SDS011;6483;51.310;4.462;2023-04-24T02:01:35;6.77;;;4.97;;
12832;SDS011;6483;51.310;4.462;2023-04-24T02:04:03;4.20;;;2.63;;
12832;SDS011;6483;51.310;4.462;2023-04-24T02:06:30;6.87;;;4.53;;
12832;SDS011;6483;51.310;4.462;2023-04-24T02:08:57;5.27;;;3.40;;
12832;SDS011;6483;51.310;4.462;2023-04-24T02:11:26;3.07;;;1.80;;
12832;SDS011;6483;51.310;4.462;2023-04-24T02:13:54;6.40;;;4.70;;
12832;SDS011;6483;51.310;4.462;2023-04-24T02:16:20;4.23;;;2.13;;
12832;SDS011;6483;51.310;4.462;2023-04-24T02:18:46;3.33;;;2.80;;
12832;SDS011;6483;51.310;4.462;2023-04-24T02:21:11;7.57;;;4.23;;
12832;SDS011;6483;51.310;4.462;2023-04-24T02:23:38;7.57;;;3.73;;
12832;SDS011;6483;51.310;4.462;2023-04-24T02:26:04;6.07;;;3.13;;
12832;SDS011;6483;51.310;4.462;2023-04-24T02:28:30;4.80;;;3.17;;
12832;SDS011;6483;51.310;4.462;2023-04-24T02:31:19;6.90;;;3.00;;
12832;SDS011;6483;51.310;4.462;2023-04-24T02:33:45;5.20;;;2.93;;
12832;SDS011;6483;51.310;4.462;2023-04-24T02:36:10;2.67;;;1.40;;
12832;SDS011;6483;51.310;4.462;2023-04-24T02:38:36;4.37;;;2.90;;
12832;SDS011;6483;51.310;4.462;2023-04-24T02:41:02;11.17;;;5.10;;
12832;SDS011;6483;51.310;4.462;2023-04-24T02:43:31;1.60;;;0.70;;
12832;SDS011;6483;51.310;4.462;2023-04-24T02:45:58;5.87;;;4.13;;
12832;SDS011;6483;51.310;4.462;2023-04-24T02:48:28;5.57;;;4.27;;
12832;SDS011;6483;51.310;4.462;2023-04-24T02:50:55;9.23;;;4.27;;
12832;SDS011;6483;51.310;4.462;2023-04-24T02:53:21;9.50;;;6.27;;
12832;SDS011;6483;51.310;4.462;2023-04-24T02:55:49;4.63;;;4.23;;
12832;SDS011;6483;51.310;4.462;2023-04-24T02:58:16;5.30;;;4.80;;
12832;SDS011;6483;51.310;4.462;2023-04-24T03:00:42;6.67;;;3.57;;
12832;SDS011;6483;51.310;4.462;2023-04-24T03:03:08;5.37;;;3.30;;
12832;SDS011;6483;51.310;4.462;2023-04-24T03:05:34;7.87;;;4.13;;
12832;SDS011;6483;51.310;4.462;2023-04-24T03:08:00;2.07;;;1.70;;
12832;SDS011;6483;51.310;4.462;2023-04-24T03:10:25;4.73;;;3.07;;
12832;SDS011;6483;51.310;4.462;2023-04-24T03:12:52;10.63;;;6.63;;
12832;SDS011;6483;51.310;4.462;2023-04-24T03:15:17;10.07;;;5.03;;
12832;SDS011;6483;51.310;4.462;2023-04-24T03:17:46;9.23;;;5.13;;
12832;SDS011;6483;51.310;4.462;2023-04-24T03:20:12;5.50;;;4.43;;
12832;SDS011;6483;51.310;4.462;2023-04-24T03:22:38;6.37;;;4.07;;
12832;SDS011;6483;51.310;4.462;2023-04-24T03:25:04;1.73;;;1.63;;
12832;SDS011;6483;51.310;4.462;2023-04-24T03:27:33;11.47;;;4.57;;
12832;SDS011;6483;51.310;4.462;2023-04-24T03:29:59;0.50;;;0.50;;
12832;SDS011;6483;51.310;4.462;2023-04-24T03:32:25;3.37;;;2.07;;
12832;SDS011;6483;51.310;4.462;2023-04-24T03:34:51;4.43;;;1.47;;
12832;SDS011;6483;51.310;4.462;2023-04-24T03:37:19;1.27;;;0.90;;
12832;SDS011;6483;51.310;4.462;2023-04-24T03:39:48;2.33;;;2.07;;
12832;SDS011;6483;51.310;4.462;2023-04-24T03:42:13;1.03;;;0.93;;
12832;SDS011;6483;51.310;4.462;2023-04-24T03:44:39;0.60;;;0.60;;
12832;SDS011;6483;51.310;4.462;2023-04-24T03:47:04;0.63;;;0.53;;
12832;SDS011;6483;51.310;4.462;2023-04-24T03:49:31;4.67;;;1.57;;
12832;SDS011;6483;51.310;4.462;2023-04-24T03:51:57;0.40;;;0.40;;
12832;SDS011;6483;51.310;4.462;2023-04-24T03:54:24;1.63;;;1.53;;
12832;SDS011;6483;51.310;4.462;2023-04-24T03:56:49;2.63;;;1.80;;
12832;SDS011;6483;51.310;4.462;2023-04-24T03:59:18;2.73;;;1.73;;
12832;SDS011;6483;51.310;4.462;2023-04-24T04:01:44;2.23;;;2.00;;
12832;SDS011;6483;51.310;4.462;2023-04-24T04:04:10;2.77;;;1.73;;
12832;SDS011;6483;51.310;4.462;2023-04-24T04:06:37;0.43;;;0.43;;
12832;SDS011;6483;51.310;4.462;2023-04-24T04:09:03;0.40;;;0.40;;
12832;SDS011;6483;51.310;4.462;2023-04-24T04:11:29;2.30;;;1.50;;
12832;SDS011;6483;51.310;4.462;2023-04-24T04:13:55;2.27;;;1.73;;
12832;SDS011;6483;51.310;4.462;2023-04-24T04:16:24;1.17;;;1.13;;
12832;SDS011;6483;51.310;4.462;2023-04-24T04:18:50;10.97;;;1.90;;
12832;SDS011;6483;51.310;4.462;2023-04-24T04:21:19;0.60;;;0.60;;
12832;SDS011;6483;51.310;4.462;2023-04-24T04:23:44;0.83;;;0.83;;
12832;SDS011;6483;51.310;4.462;2023-04-24T04:26:14;2.10;;;1.50;;
12832;SDS011;6483;51.310;4.462;2023-04-24T04:28:39;3.90;;;1.80;;
12832;SDS011;6483;51.310;4.462;2023-04-24T04:31:06;0.40;;;0.40;;
12832;SDS011;6483;51.310;4.462;2023-04-24T04:33:32;0.67;;;0.67;;
12832;SDS011;6483;51.310;4.462;2023-04-24T04:36:01;3.03;;;1.50;;
12832;SDS011;6483;51.310;4.462;2023-04-24T04:38:28;10.53;;;0.73;;
12832;SDS011;6483;51.310;4.462;2023-04-24T04:40:55;1.93;;;1.47;;
12832;SDS011;6483;51.310;4.462;2023-04-24T04:43:22;0.40;;;0.40;;
12832;SDS011;6483;51.310;4.462;2023-04-24T04:45:49;3.97;;;2.30;;
12832;SDS011;6483;51.310;4.462;2023-04-24T04:48:16;4.10;;;3.13;;
12832;SDS011;6483;51.310;4.462;2023-04-24T04:50:45;4.10;;;2.13;;
12832;SDS011;6483;51.310;4.462;2023-04-24T04:53:13;1.57;;;1.47;;
12832;SDS011;6483;51.310;4.462;2023-04-24T04:55:38;4.40;;;2.67;;
12832;SDS011;6483;51.310;4.462;2023-04-24T04:58:04;6.47;;;4.40;;
12832;SDS011;6483;51.310;4.462;2023-04-24T05:00:31;6.37;;;3.33;;
12832;SDS011;6483;51.310;4.462;2023-04-24T05:03:00;0.90;;;0.87;;
12832;SDS011;6483;51.310;4.462;2023-04-24T05:05:27;3.40;;;2.80;;
12832;SDS011;6483;51.310;4.462;2023-04-24T05:07:54;3.60;;;2.33;;
12832;SDS011;6483;51.310;4.462;2023-04-24T05:10:20;25.37;;;5.97;;
12832;SDS011;6483;51.310;4.462;2023-04-24T05:12:46;4.83;;;4.17;;
12832;SDS011;6483;51.310;4.462;2023-04-24T05:15:15;3.97;;;2.57;;
12832;SDS011;6483;51.310;4.462;2023-04-24T05:17:41;2.73;;;1.83;;
12832;SDS011;6483;51.310;4.462;2023-04-24T05:20:07;8.77;;;2.80;;
12832;SDS011;6483;51.310;4.462;2023-04-24T05:22:38;2.57;;;1.97;;
12832;SDS011;6483;51.310;4.462;2023-04-24T05:25:03;11.10;;;2.60;;
12832;SDS011;6483;51.310;4.462;2023-04-24T05:27:33;2.33;;;2.17;;
12832;SDS011;6483;51.310;4.462;2023-04-24T05:29:59;7.50;;;2.83;;
12832;SDS011;6483;51.310;4.462;2023-04-24T05:32:29;0.90;;;0.83;;
12832;SDS011;6483;51.310;4.462;2023-04-24T05:34:55;2.47;;;2.27;;
12832;SDS011;6483;51.310;4.462;2023-04-24T05:37:21;10.67;;;4.50;;
12832;SDS011;6483;51.310;4.462;2023-04-24T05:39:49;2.90;;;2.10;;
12832;SDS011;6483;51.310;4.462;2023-04-24T05:42:17;5.20;;;2.03;;
12832;SDS011;6483;51.310;4.462;2023-04-24T05:44:43;5.47;;;3.60;;
12832;SDS011;6483;51.310;4.462;2023-04-24T05:47:09;1.20;;;1.10;;
12832;SDS011;6483;51.310;4.462;2023-04-24T05:49:37;4.43;;;3.20;;
12832;SDS011;6483;51.310;4.462;2023-04-24T05:52:03;2.37;;;1.87;;
12832;SDS011;6483;51.310;4.462;2023-04-24T05:54:30;3.93;;;2.40;;
12832;SDS011;6483;51.310;4.462;2023-04-24T05:56:59;1.50;;;1.40;;
12832;SDS011;6483;51.310;4.462;2023-04-24T05:59:29;3.20;;;2.60;;
12832;SDS011;6483;51.310;4.462;2023-04-24T06:01:54;1.83;;;1.37;;
12832;SDS011;6483;51.310;4.462;2023-04-24T06:04:20;5.90;;;2.50;;
12832;SDS011;6483;51.310;4.462;2023-04-24T06:06:46;2.23;;;0.93;;
12832;SDS011;6483;51.310;4.462;2023-04-24T06:09:16;2.43;;;2.20;;
12832;SDS011;6483;51.310;4.462;2023-04-24T06:12:00;0.70;;;0.70;;
12832;SDS011;6483;51.310;4.462;2023-04-24T06:14:29;1.23;;;0.93;;
12832;SDS011;6483;51.310;4.462;2023-04-24T06:16:54;8.43;;;5.10;;
12832;SDS011;6483;51.310;4.462;2023-04-24T06:19:20;5.37;;;2.57;;
12832;SDS011;6483;51.310;4.462;2023-04-24T06:21:46;3.60;;;2.80;;
12832;SDS011;6483;51.310;4.462;2023-04-24T06:24:13;4.87;;;2.57;;
12832;SDS011;6483;51.310;4.462;2023-04-24T06:26:41;1.90;;;1.67;;
12832;SDS011;6483;51.310;4.462;2023-04-24T06:29:07;5.53;;;0.57;;
12832;SDS011;6483;51.310;4.462;2023-04-24T06:31:36;1.63;;;1.53;;
12832;SDS011;6483;51.310;4.462;2023-04-24T06:34:02;2.33;;;1.30;;
12832;SDS011;6483;51.310;4.462;2023-04-24T06:36:33;1.23;;;1.13;;
12832;SDS011;6483;51.310;4.462;2023-04-24T06:39:00;0.17;;;0.17;;
12832;SDS011;6483;51.310;4.462;2023-04-24T06:41:28;6.10;;;2.63;;
12832;SDS011;6483;51.310;4.462;2023-04-24T06:43:54;2.87;;;0.50;;
12832;SDS011;6483;51.310;4.462;2023-04-24T06:46:20;6.80;;;3.00;;
12832;SDS011;6483;51.310;4.462;2023-04-24T06:48:48;7.10;;;1.57;;
12832;SDS011;6483;51.310;4.462;2023-04-24T06:51:15;2.57;;;1.40;;
12832;SDS011;6483;51.310;4.462;2023-04-24T06:53:43;4.40;;;1.77;;
12832;SDS011;6483;51.310;4.462;2023-04-24T06:56:09;1.30;;;1.20;;
12832;SDS011;6483;51.310;4.462;2023-04-24T06:58:35;7.87;;;2.90;;
12832;SDS011;6483;51.310;4.462;2023-04-24T07:01:00;9.03;;;2.73;;
12832;SDS011;6483;51.310;4.462;2023-04-24T07:03:26;8.20;;;1.90;;
12832;SDS011;6483;51.310;4.462;2023-04-24T07:05:52;4.23;;;2.40;;
12832;SDS011;6483;51.310;4.462;2023-04-24T07:08:19;2.57;;;1.27;;
12832;SDS011;6483;51.310;4.462;2023-04-24T07:10:46;1.00;;;1.00;;
12832;SDS011;6483;51.310;4.462;2023-04-24T07:13:13;1.60;;;1.40;;
12832;SDS011;6483;51.310;4.462;2023-04-24T07:15:39;2.07;;;1.57;;
12832;SDS011;6483;51.310;4.462;2023-04-24T07:18:06;1.63;;;1.17;;
12832;SDS011;6483;51.310;4.462;2023-04-24T07:20:35;2.70;;;1.20;;
12832;SDS011;6483;51.310;4.462;2023-04-24T07:23:01;6.10;;;0.80;;
12832;SDS011;6483;51.310;4.462;2023-04-24T07:25:27;1.27;;;0.70;;
12832;SDS011;6483;51.310;4.462;2023-04-24T07:27:52;2.37;;;0.33;;
12832;SDS011;6483;51.310;4.462;2023-04-24T07:30:18;5.70;;;0.63;;
12832;SDS011;6483;51.310;4.462;2023-04-24T07:32:44;1.03;;;1.03;;
12832;SDS011;6483;51.310;4.462;2023-04-24T07:35:10;5.40;;;1.70;;
12832;SDS011;6483;51.310;4.462;2023-04-24T07:37:36;0.03;;;0.03;;
12832;SDS011;6483;51.310;4.462;2023-04-24T07:40:01;9.80;;;2.33;;
12832;SDS011;6483;51.310;4.462;2023-04-24T07:42:31;1.07;;;0.90;;
12832;SDS011;6483;51.310;4.462;2023-04-24T07:44:59;0.93;;;0.47;;
12832;SDS011;6483;51.310;4.462;2023-04-24T07:47:25;6.83;;;2.47;;
12832;SDS011;6483;51.310;4.462;2023-04-24T07:49:51;0.87;;;0.87;;
12832;SDS011;6483;51.310;4.462;2023-04-24T07:52:19;0.80;;;0.70;;
12832;SDS011;6483;51.310;4.462;2023-04-24T07:54:45;2.20;;;1.77;;
12832;SDS011;6483;51.310;4.462;2023-04-24T07:57:14;7.60;;;2.73;;
12832;SDS011;6483;51.310;4.462;2023-04-24T07:59:39;0.20;;;0.20;;
12832;SDS011;6483;51.310;4.462;2023-04-24T08:02:05;0.10;;;0.10;;
12832;SDS011;6483;51.310;4.462;2023-04-24T08:04:35;3.07;;;1.23;;
12832;SDS011;6483;51.310;4.462;2023-04-24T08:07:03;0.47;;;0.47;;
12832;SDS011;6483;51.310;4.462;2023-04-24T08:09:33;1.90;;;1.10;;
12832;SDS011;6483;51.310;4.462;2023-04-24T08:11:59;9.23;;;1.40;;
12832;SDS011;6483;51.310;4.462;2023-04-24T08:14:26;0.80;;;0.80;;
12832;SDS011;6483;51.310;4.462;2023-04-24T08:16:53;1.80;;;1.13;;
12832;SDS011;6483;51.310;4.462;2023-04-24T08:19:20;0.47;;;0.47;;
12832;SDS011;6483;51.310;4.462;2023-04-24T08:21:46;0.20;;;0.20;;
12832;SDS011;6483;51.310;4.462;2023-04-24T08:24:12;3.13;;;0.80;;
12832;SDS011;6483;51.310;4.462;2023-04-24T08:26:41;0.43;;;0.43;;
12832;SDS011;6483;51.310;4.462;2023-04-24T08:29:07;5.60;;;1.13;;
12832;SDS011;6483;51.310;4.462;2023-04-24T08:31:33;1.50;;;0.80;;
12832;SDS011;6483;51.310;4.462;2023-04-24T08:34:01;2.67;;;1.70;;
12832;SDS011;6483;51.310;4.462;2023-04-24T08:36:30;6.07;;;1.63;;
12832;SDS011;6483;51.310;4.462;2023-04-24T08:38:56;4.70;;;2.27;;
12832;SDS011;6483;51.310;4.462;2023-04-24T08:41:22;1.70;;;0.87;;
12832;SDS011;6483;51.310;4.462;2023-04-24T08:43:51;4.57;;;1.03;;
12832;SDS011;6483;51.310;4.462;2023-04-24T08:46:17;4.33;;;1.00;;
12832;SDS011;6483;51.310;4.462;2023-04-24T08:48:44;3.40;;;0.77;;
12832;SDS011;6483;51.310;4.462;2023-04-24T08:51:11;0.20;;;0.20;;
12832;SDS011;6483;51.310;4.462;2023-04-24T08:53:40;2.63;;;0.87;;
12832;SDS011;6483;51.310;4.462;2023-04-24T08:56:06;0.43;;;0.43;;
12832;SDS011;6483;51.310;4.462;2023-04-24T08:58:33;1.53;;;0.87;;
12832;SDS011;6483;51.310;4.462;2023-04-24T09:00:58;10.63;;;0.37;;
12832;SDS011;6483;51.310;4.462;2023-04-24T09:03:27;0.33;;;0.33;;
12832;SDS011;6483;51.310;4.462;2023-04-24T09:05:54;4.38;;;1.35;;
12832;SDS011;6483;51.310;4.462;2023-04-24T09:08:20;1.10;;;1.00;;
12832;SDS011;6483;51.310;4.462;2023-04-24T09:10:50;1.30;;;0.60;;
12832;SDS011;6483;51.310;4.462;2023-04-24T09:13:16;0.20;;;0.20;;
12832;SDS011;6483;51.310;4.462;2023-04-24T09:15:46;4.30;;;1.50;;
12832;SDS011;6483;51.310;4.462;2023-04-24T09:18:12;0.50;;;0.50;;
12832;SDS011;6483;51.310;4.462;2023-04-24T09:23:27;1.80;;;1.10;;
12832;SDS011;6483;51.310;4.462;2023-04-24T09:25:58;0.37;;;0.37;;
12832;SDS011;6483;51.310;4.462;2023-04-24T09:28:36;0.40;;;0.30;;
12832;SDS011;6483;51.310;4.462;2023-04-24T09:31:09;0.83;;;0.73;;
12832;SDS011;6483;51.310;4.462;2023-04-24T09:33:39;8.60;;;0.80;;
12832;SDS011;6483;51.310;4.462;2023-04-24T09:36:38;0.97;;;0.87;;
12832;SDS011;6483;51.310;4.462;2023-04-24T09:39:10;0.10;;;0.10;;
12832;SDS011;6483;51.310;4.462;2023-04-24T09:41:52;1.37;;;0.73;;
12832;SDS011;6483;51.310;4.462;2023-04-24T09:44:20;0.30;;;0.30;;
12832;SDS011;6483;51.310;4.462;2023-04-24T09:46:54;0.20;;;0.20;;
12832;SDS011;6483;51.310;4.462;2023-04-24T09:49:26;0.47;;;0.38;;
12832;SDS011;6483;51.310;4.462;2023-04-24T09:52:05;0.50;;;0.50;;
12832;SDS011;6483;51.310;4.462;2023-04-24T09:54:31;5.03;;;0.50;;
12832;SDS011;6483;51.310;4.462;2023-04-24T09:57:24;0.97;;;0.40;;
12832;SDS011;6483;51.310;4.462;2023-04-24T09:59:50;0.23;;;0.23;;
12832;SDS011;6483;51.310;4.462;2023-04-24T10:02:19;1.90;;;0.43;;
12832;SDS011;6483;51.310;4.462;2023-04-24T10:05:03;0.97;;;0.77;;
12832;SDS011;6483;51.310;4.462;2023-04-24T10:07:32;4.13;;;0.20;;
12832;SDS011;6483;51.310;4.462;2023-04-24T10:09:58;0.53;;;0.50;;
12832;SDS011;6483;51.310;4.462;2023-04-24T10:12:24;0.00;;;0.00;;
12832;SDS011;6483;51.310;4.462;2023-04-24T10:14:54;3.30;;;0.97;;
12832;SDS011;6483;51.310;4.462;2023-04-24T10:17:21;0.40;;;0.40;;
12832;SDS011;6483;51.310;4.462;2023-04-24T10:19:50;1.10;;;0.43;;
12832;SDS011;6483;51.310;4.462;2023-04-24T10:22:16;2.30;;;0.97;;
12832;SDS011;6483;51.310;4.462;2023-04-24T10:24:43;0.10;;;0.10;;
12832;SDS011;6483;51.310;4.462;2023-04-24T10:27:12;0.83;;;0.20;;
12832;SDS011;6483;51.310;4.462;2023-04-24T10:29:40;3.50;;;0.60;;
12832;SDS011;6483;51.310;4.462;2023-04-24T10:32:11;0.32;;;0.32;;
12832;SDS011;6483;51.310;4.462;2023-04-24T10:34:37;0.05;;;0.05;;
12832;SDS011;6483;51.310;4.462;2023-04-24T10:37:06;3.50;;;0.30;;
12832;SDS011;6483;51.310;4.462;2023-04-24T10:39:32;4.10;;;0.68;;
12832;SDS011;6483;51.310;4.462;2023-04-24T10:41:58;0.03;;;0.03;;
12832;SDS011;6483;51.310;4.462;2023-04-24T10:44:24;0.52;;;0.52;;
12832;SDS011;6483;51.310;4.462;2023-04-24T10:46:54;1.65;;;0.60;;
12832;SDS011;6483;51.310;4.462;2023-04-24T10:49:27;1.27;;;0.63;;
12832;SDS011;6483;51.310;4.462;2023-04-24T10:51:54;2.03;;;0.28;;
12832;SDS011;6483;51.310;4.462;2023-04-24T10:54:26;0.30;;;0.30;;
12832;SDS011;6483;51.310;4.462;2023-04-24T11:00:14;0.10;;;0.10;;
12832;SDS011;6483;51.310;4.462;2023-04-24T11:03:01;1.63;;;0.90;;
12832;SDS011;6483;51.310;4.462;2023-04-24T11:06:03;1.87;;;0.50;;
12832;SDS011;6483;51.310;4.462;2023-04-24T11:08:31;0.10;;;0.10;;
12832;SDS011;6483;51.310;4.462;2023-04-24T11:11:09;0.30;;;0.30;;
12832;SDS011;6483;51.310;4.462;2023-04-24T11:18:52;2.00;;;0.30;;
12832;SDS011;6483;51.310;4.462;2023-04-24T11:21:25;0.10;;;0.10;;
12832;SDS011;6483;51.310;4.462;2023-04-24T11:24:20;0.20;;;0.20;;
12832;SDS011;6483;51.310;4.462;2023-04-24T11:27:13;0.30;;;0.30;;
12832;SDS011;6483;51.310;4.462;2023-04-24T11:29:58;0.20;;;0.20;;
12832;SDS011;6483;51.310;4.462;2023-04-24T11:32:36;0.10;;;0.10;;
12832;SDS011;6483;51.310;4.462;2023-04-24T11:35:07;2.38;;;0.40;;
12832;SDS011;6483;51.310;4.462;2023-04-24T11:37:47;0.13;;;0.13;;
12832;SDS011;6483;51.310;4.462;2023-04-24T11:40:15;0.57;;;0.57;;
12832;SDS011;6483;51.310;4.462;2023-04-24T11:42:43;2.53;;;1.00;;
12832;SDS011;6483;51.310;4.462;2023-04-24T11:45:11;0.30;;;0.30;;
12832;SDS011;6483;51.310;4.462;2023-04-24T11:47:57;0.27;;;0.27;;
12832;SDS011;6483;51.310;4.462;2023-04-24T11:50:24;0.10;;;0.10;;
12832;SDS011;6483;51.310;4.462;2023-04-24T11:52:52;0.10;;;0.10;;
12832;SDS011;6483;51.310;4.462;2023-04-24T11:57:48;0.00;;;0.00;;
12832;SDS011;6483;51.310;4.462;2023-04-24T12:02:46;0.67;;;0.53;;
12832;SDS011;6483;51.310;4.462;2023-04-24T12:05:25;0.65;;;0.30;;
12832;SDS011;6483;51.310;4.462;2023-04-24T12:07:55;2.53;;;0.70;;
12832;SDS011;6483;51.310;4.462;2023-04-24T12:10:24;0.47;;;0.47;;
12832;SDS011;6483;51.310;4.462;2023-04-24T12:12:52;0.10;;;0.10;;
12832;SDS011;6483;51.310;4.462;2023-04-24T12:15:18;5.90;;;0.63;;
12832;SDS011;6483;51.310;4.462;2023-04-24T12:17:50;0.20;;;0.20;;
12832;SDS011;6483;51.310;4.462;2023-04-24T12:20:16;1.83;;;0.28;;
12832;SDS011;6483;51.310;4.462;2023-04-24T12:22:52;0.30;;;0.30;;
12832;SDS011;6483;51.310;4.462;2023-04-24T12:25:39;0.35;;;0.35;;
12832;SDS011;6483;51.310;4.462;2023-04-24T12:30:38;0.10;;;0.10;;
12832;SDS011;6483;51.310;4.462;2023-04-24T12:33:09;1.85;;;0.45;;
12832;SDS011;6483;51.310;4.462;2023-04-24T12:35:35;0.95;;;0.55;;
12832;SDS011;6483;51.310;4.462;2023-04-24T12:38:08;0.35;;;0.35;;
12832;SDS011;6483;51.310;4.462;2023-04-24T12:40:35;0.05;;;0.05;;
12832;SDS011;6483;51.310;4.462;2023-04-24T12:43:12;0.10;;;0.10;;
12832;SDS011;6483;51.310;4.462;2023-04-24T12:45:47;0.00;;;0.00;;
12832;SDS011;6483;51.310;4.462;2023-04-24T12:48:12;0.08;;;0.05;;
12832;SDS011;6483;51.310;4.462;2023-04-24T12:50:41;0.22;;;0.22;;
12832;SDS011;6483;51.310;4.462;2023-04-24T12:53:09;0.52;;;0.52;;
12832;SDS011;6483;51.310;4.462;2023-04-24T12:55:35;2.10;;;0.32;;
12832;SDS011;6483;51.310;4.462;2023-04-24T12:58:01;0.43;;;0.20;;
12832;SDS011;6483;51.310;4.462;2023-04-24T13:00:31;0.25;;;0.25;;
12832;SDS011;6483;51.310;4.462;2023-04-24T13:02:59;0.32;;;0.32;;
12832;SDS011;6483;51.310;4.462;2023-04-24T13:05:27;0.52;;;0.30;;
12832;SDS011;6483;51.310;4.462;2023-04-24T13:07:53;0.10;;;0.10;;
12832;SDS011;6483;51.310;4.462;2023-04-24T13:10:19;1.85;;;1.05;;
12832;SDS011;6483;51.310;4.462;2023-04-24T13:12:45;0.20;;;0.20;;
12832;SDS011;6483;51.310;4.462;2023-04-24T13:15:11;0.30;;;0.10;;
12832;SDS011;6483;51.310;4.462;2023-04-24T13:17:41;1.35;;;0.43;;
12832;SDS011;6483;51.310;4.462;2023-04-24T13:20:13;0.10;;;0.10;;
12832;SDS011;6483;51.310;4.462;2023-04-24T13:22:39;0.30;;;0.22;;
12832;SDS011;6483;51.310;4.462;2023-04-24T13:25:05;0.10;;;0.10;;
12832;SDS011;6483;51.310;4.462;2023-04-24T13:27:33;0.17;;;0.17;;
12832;SDS011;6483;51.310;4.462;2023-04-24T13:29:59;0.32;;;0.32;;
12832;SDS011;6483;51.310;4.462;2023-04-24T13:32:25;0.10;;;0.10;;
12832;SDS011;6483;51.310;4.462;2023-04-24T13:34:51;0.35;;;0.30;;
12832;SDS011;6483;51.310;4.462;2023-04-24T13:37:17;0.30;;;0.30;;
12832;SDS011;6483;51.310;4.462;2023-04-24T13:39:42;0.20;;;0.20;;
12832;SDS011;6483;51.310;4.462;2023-04-24T13:42:11;0.10;;;0.10;;
12832;SDS011;6483;51.310;4.462;2023-04-24T13:44:39;0.00;;;0.00;;
12832;SDS011;6483;51.310;4.462;2023-04-24T13:47:05;0.17;;;0.13;;
12832;SDS011;6483;51.310;4.462;2023-04-24T13:49:31;1.25;;;0.45;;
12832;SDS011;6483;51.310;4.462;2023-04-24T13:51:57;0.17;;;0.17;;
12832;SDS011;6483;51.310;4.462;2023-04-24T13:54:23;0.40;;;0.40;;
12832;SDS011;6483;51.310;4.462;2023-04-24T13:56:53;0.20;;;0.20;;
12832;SDS011;6483;51.310;4.462;2023-04-24T13:59:21;0.22;;;0.22;;
12832;SDS011;6483;51.310;4.462;2023-04-24T14:01:50;0.00;;;0.00;;
12832;SDS011;6483;51.310;4.462;2023-04-24T14:04:16;0.15;;;0.15;;
12832;SDS011;6483;51.310;4.462;2023-04-24T14:06:41;0.28;;;0.17;;
12832;SDS011;6483;51.310;4.462;2023-04-24T14:09:08;6.80;;;1.15;;
12832;SDS011;6483;51.310;4.462;2023-04-24T14:11:34;0.10;;;0.10;;
12832;SDS011;6483;51.310;4.462;2023-04-24T14:14:03;0.47;;;0.20;;
12832;SDS011;6483;51.310;4.462;2023-04-24T14:16:29;0.20;;;0.20;;
12832;SDS011;6483;51.310;4.462;2023-04-24T14:18:55;1.15;;;0.43;;
12832;SDS011;6483;51.310;4.462;2023-04-24T14:21:22;0.00;;;0.00;;
12832;SDS011;6483;51.310;4.462;2023-04-24T14:23:48;0.30;;;0.30;;
12832;SDS011;6483;51.310;4.462;2023-04-24T14:26:13;0.22;;;0.22;;
12832;SDS011;6483;51.310;4.462;2023-04-24T14:28:39;0.30;;;0.30;;
12832;SDS011;6483;51.310;4.462;2023-04-24T14:31:06;0.88;;;0.82;;
12832;SDS011;6483;51.310;4.462;2023-04-24T14:33:32;0.00;;;0.00;;
12832;SDS011;6483;51.310;4.462;2023-04-24T14:35:58;2.28;;;0.43;;
12832;SDS011;6483;51.310;4.462;2023-04-24T14:38:24;0.10;;;0.10;;
12832;SDS011;6483;51.310;4.462;2023-04-24T14:40:50;0.57;;;0.52;;
12832;SDS011;6483;51.310;4.462;2023-04-24T14:43:15;0.35;;;0.35;;
12832;SDS011;6483;51.310;4.462;2023-04-24T14:45:44;0.25;;;0.25;;
12832;SDS011;6483;51.310;4.462;2023-04-24T14:48:12;0.43;;;0.22;;
12832;SDS011;6483;51.310;4.462;2023-04-24T14:50:37;0.00;;;0.00;;
12832;SDS011;6483;51.310;4.462;2023-04-24T14:53:03;0.28;;;0.25;;
12832;SDS011;6483;51.310;4.462;2023-04-24T14:55:32;1.27;;;0.80;;
12832;SDS011;6483;51.310;4.462;2023-04-24T14:58:01;2.60;;;0.75;;
12832;SDS011;6483;51.310;4.462;2023-04-24T15:00:27;0.47;;;0.40;;
12832;SDS011;6483;51.310;4.462;2023-04-24T15:02:54;2.47;;;1.15;;
12832;SDS011;6483;51.310;4.462;2023-04-24T15:05:20;0.00;;;0.00;;
12832;SDS011;6483;51.310;4.462;2023-04-24T15:07:49;0.40;;;0.35;;
12832;SDS011;6483;51.310;4.462;2023-04-24T15:10:15;0.15;;;0.15;;
12832;SDS011;6483;51.310;4.462;2023-04-24T15:12:42;0.20;;;0.20;;
12832;SDS011;6483;51.310;4.462;2023-04-24T15:15:09;0.10;;;0.10;;
12832;SDS011;6483;51.310;4.462;2023-04-24T15:17:39;0.30;;;0.30;;
12832;SDS011;6483;51.310;4.462;2023-04-24T15:20:05;2.65;;;0.45;;
12832;SDS011;6483;51.310;4.462;2023-04-24T15:22:32;0.25;;;0.25;;
12832;SDS011;6483;51.310;4.462;2023-04-24T15:24:58;0.20;;;0.10;;